CheckWX is a tool to help pilots better visualize weather data.  It is not intended as a substitute for an official pre-flight weather briefing.

04:53:04 UTC

FLHN METAR
Livingstone Nkum
Livingstone Nkum, Zambia
Current

14 hours ago

FLHN 251500Z 10007KT CAVOK 26/M03 Q1021
Observed
Aug-25 @ 15:00 UTC
Wind
  • 100° at 7 KTS
Visibility
10,000+ meters
Flight Rules
VFR
Cloud Levels
  • Clear skies
Temperature
26°C / 79°F
Dewpoint
-3°C / 27°F
Humidity
15%
Altimeter
30.15" Hg
Pressure
1020.92 hPa
Previous

22 hours ago

FLHN 250700Z 10005KT 9000 NSC 19/M01 Q1026
Observed
Aug-25 @ 07:00 UTC
Wind
  • 100° at 5 KTS
Visibility
9,000 meters
Flight Rules
VFR
Cloud Levels
  • Clear skies
Temperature
19°C / 66°F
Dewpoint
-1°C / 30°F
Humidity
26%
Altimeter
30.3" Hg
Pressure
1025.92 hPa